createdAt,value
2023-02-09T00:01:20.602Z,119.80
2023-02-09T00:03:47.725Z,114.50
2023-02-09T00:06:18.320Z,117.10
2023-02-09T00:08:45.810Z,121.70
2023-02-09T00:11:47.700Z,124.00
2023-02-09T00:14:18.216Z,111.90
2023-02-09T00:16:47.276Z,112.40
2023-02-09T00:19:15.001Z,111.70
2023-02-09T00:21:41.952Z,121.40
2023-02-09T00:24:10.983Z,103.70
2023-02-09T00:26:39.000Z,110.70
2023-02-09T00:29:07.116Z,108.00
2023-02-09T00:31:34.512Z,106.70
2023-02-09T00:34:02.127Z,106.30
2023-02-09T00:36:29.691Z,107.60
2023-02-09T00:38:56.848Z,99.60
2023-02-09T00:41:42.534Z,110.50
2023-02-09T00:44:13.054Z,112.50
2023-02-09T00:46:39.898Z,124.60
2023-02-09T00:49:07.202Z,115.70
2023-02-09T00:51:35.038Z,107.40
2023-02-09T00:54:03.049Z,113.60
2023-02-09T00:56:29.918Z,107.90
2023-02-09T00:58:56.809Z,112.90
2023-02-09T01:01:25.354Z,116.20
2023-02-09T01:03:53.167Z,130.20
2023-02-09T01:06:20.878Z,128.60
2023-02-09T01:08:47.855Z,110.80
2023-02-09T01:11:16.914Z,117.20
2023-02-09T01:13:45.778Z,121.00
2023-02-09T01:16:15.973Z,116.90
2023-02-09T01:18:44.065Z,108.80
2023-02-09T01:21:13.678Z,114.40
2023-02-09T01:23:40.688Z,108.80
2023-02-09T01:26:09.523Z,113.90
2023-02-09T01:28:37.598Z,103.30
2023-02-09T01:31:06.416Z,104.50
2023-02-09T01:33:33.673Z,96.50
2023-02-09T01:36:04.901Z,108.00
2023-02-09T01:38:31.847Z,94.20
2023-02-09T01:40:58.804Z,93.20
2023-02-09T01:43:25.647Z,93.50
2023-02-09T01:45:57.108Z,95.80
2023-02-09T01:48:28.761Z,105.10
2023-02-09T01:51:00.269Z,95.00
2023-02-09T01:53:28.299Z,96.30
2023-02-09T01:56:02.403Z,88.90
2023-02-09T01:58:30.069Z,91.70
2023-02-09T02:00:59.609Z,94.20
2023-02-09T02:03:29.599Z,101.90
2023-02-09T02:08:38.140Z,93.90
2023-02-09T02:11:06.208Z,90.90
2023-02-09T02:13:33.053Z,81.60
2023-02-09T02:16:04.982Z,81.20
2023-02-09T02:18:43.954Z,75.90
2023-02-09T02:21:18.990Z,80.90
2023-02-09T02:24:04.758Z,81.90
2023-02-09T02:26:50.247Z,75.80
2023-02-09T02:29:32.260Z,80.10
2023-02-09T02:32:04.878Z,76.60
2023-02-09T02:34:50.984Z,70.40
2023-02-09T02:37:32.986Z,74.10
2023-02-09T02:40:22.850Z,69.30
2023-02-09T02:43:16.303Z,72.40
2023-02-09T02:45:45.609Z,65.70
2023-02-09T02:48:33.133Z,70.40
2023-02-09T02:51:05.030Z,65.00
2023-02-09T02:53:36.132Z,63.90
2023-02-09T02:56:15.470Z,72.20
2023-02-09T02:58:45.708Z,62.10
2023-02-09T03:01:17.589Z,69.00
2023-02-09T03:03:46.551Z,61.10
2023-02-09T03:06:14.945Z,69.40
2023-02-09T03:08:57.045Z,64.60
2023-02-09T03:11:30.236Z,71.40
2023-02-09T03:14:06.403Z,66.30
2023-02-09T03:17:13.444Z,62.50
2023-02-09T03:19:56.460Z,76.00
2023-02-09T03:22:33.041Z,64.60
2023-02-09T03:25:10.231Z,65.40
2023-02-09T03:27:41.664Z,66.70
2023-02-09T03:30:12.641Z,71.10
2023-02-09T03:32:42.530Z,78.90
2023-02-09T03:35:12.907Z,67.70
2023-02-09T03:37:39.908Z,71.00
2023-02-09T03:40:07.786Z,69.10
2023-02-09T03:42:34.732Z,69.00
2023-02-09T03:45:02.085Z,67.30
2023-02-09T03:47:30.952Z,73.80
2023-02-09T03:49:58.573Z,67.70
2023-02-09T03:52:26.094Z,66.00
2023-02-09T03:54:53.064Z,70.20
2023-02-09T03:57:19.882Z,64.40
2023-02-09T03:59:46.753Z,66.10
2023-02-09T04:02:13.826Z,74.70
2023-02-09T04:04:40.661Z,65.90
2023-02-09T04:07:07.822Z,72.70
2023-02-09T04:09:34.883Z,72.50
2023-02-09T04:12:01.740Z,74.00
2023-02-09T04:14:28.662Z,75.10
2023-02-09T04:16:55.645Z,73.70
2023-02-09T04:19:22.600Z,71.60
2023-02-09T04:21:49.507Z,82.60
2023-02-09T04:24:26.339Z,70.10
2023-02-09T04:26:53.337Z,63.50
2023-02-09T04:29:20.177Z,82.50
2023-02-09T04:31:47.150Z,97.60
2023-02-09T04:34:14.010Z,89.80
2023-02-09T04:36:41.014Z,87.50
2023-02-09T04:39:08.007Z,80.00
2023-02-09T04:41:34.939Z,81.60
2023-02-09T04:44:01.808Z,81.80
2023-02-09T04:46:28.651Z,77.60
2023-02-09T04:48:55.486Z,81.20
2023-02-09T04:51:28.035Z,83.10
2023-02-09T04:54:00.641Z,84.60
2023-02-09T04:56:27.624Z,74.60
2023-02-09T04:59:13.374Z,83.60
2023-02-09T05:01:40.319Z,84.20
2023-02-09T05:04:07.167Z,87.20
2023-02-09T05:06:34.120Z,84.90
2023-02-09T05:09:00.973Z,88.60
2023-02-09T05:11:27.829Z,84.80
2023-02-09T05:13:56.198Z,85.00
2023-02-09T05:16:23.185Z,97.30
2023-02-09T05:18:51.260Z,87.30
2023-02-09T05:21:18.483Z,83.90
2023-02-09T05:23:45.435Z,101.80
2023-02-09T05:26:12.392Z,99.70
2023-02-09T05:28:39.238Z,91.60
2023-02-09T05:31:06.276Z,107.30
2023-02-09T05:33:33.337Z,112.40
2023-02-09T05:36:00.293Z,146.70
2023-02-09T05:38:27.235Z,101.60
2023-02-09T05:40:54.106Z,102.40
2023-02-09T05:43:20.959Z,86.10
2023-02-09T05:45:48.212Z,90.30
2023-02-09T05:48:15.247Z,84.00
2023-02-09T05:50:42.201Z,95.50
2023-02-09T05:53:09.575Z,91.30
2023-02-09T05:55:36.991Z,84.40
2023-02-09T05:58:03.968Z,93.10
2023-02-09T06:00:30.935Z,95.40
2023-02-09T06:03:03.918Z,103.60
2023-02-09T06:05:30.923Z,97.40
2023-02-09T06:07:58.309Z,88.90
2023-02-09T06:10:25.368Z,95.30
2023-02-09T06:12:52.312Z,102.30
2023-02-09T06:15:19.240Z,106.20
2023-02-09T06:17:46.621Z,103.10
2023-02-09T06:20:13.585Z,103.20
2023-02-09T06:22:41.047Z,107.20
2023-02-09T06:25:11.165Z,103.00
2023-02-09T06:27:38.117Z,102.90
2023-02-09T06:30:06.095Z,102.90
2023-02-09T06:32:33.033Z,92.10
2023-02-09T06:35:00.001Z,90.30
2023-02-09T06:37:27.043Z,103.80
2023-02-09T06:39:53.986Z,103.70
2023-02-09T06:42:20.960Z,98.90
2023-02-09T06:44:47.873Z,96.10
2023-02-09T06:47:14.738Z,107.60
2023-02-09T06:49:41.790Z,99.30
2023-02-09T06:52:08.743Z,90.10
2023-02-09T06:54:35.622Z,90.50
2023-02-09T06:57:02.536Z,84.70
2023-02-09T06:59:29.368Z,87.70
2023-02-09T07:01:56.474Z,92.70
2023-02-09T07:04:23.390Z,90.40
2023-02-09T07:06:50.753Z,87.90
2023-02-09T07:09:17.800Z,91.50
2023-02-09T07:11:44.755Z,83.80
2023-02-09T07:14:11.708Z,83.80
2023-02-09T07:16:38.763Z,82.70
2023-02-09T07:19:05.713Z,78.80
2023-02-09T07:21:32.663Z,83.70
2023-02-09T07:23:59.712Z,85.90
2023-02-09T07:26:26.657Z,80.10
2023-02-09T07:28:53.515Z,84.90
2023-02-09T07:31:20.556Z,83.80
2023-02-09T07:33:47.610Z,75.20
2023-02-09T07:36:16.643Z,78.10
2023-02-09T07:38:44.283Z,78.60
2023-02-09T07:41:19.004Z,71.20
2023-02-09T07:43:46.474Z,72.50
2023-02-09T07:46:17.955Z,71.60
2023-02-09T07:48:45.388Z,65.70
2023-02-09T07:51:20.305Z,64.40
2023-02-09T07:53:48.182Z,64.00
2023-02-09T07:56:15.126Z,63.10
2023-02-09T07:58:42.078Z,63.30
2023-02-09T08:01:12.151Z,57.80
2023-02-09T08:03:41.000Z,61.60
2023-02-09T08:06:45.400Z,61.80
2023-02-09T08:09:16.714Z,61.30
2023-02-09T08:11:55.824Z,62.30
2023-02-09T08:14:28.966Z,60.20
2023-02-09T08:17:18.940Z,62.10
2023-02-09T08:22:16.121Z,57.80
2023-02-09T08:24:43.376Z,60.20
2023-02-09T08:27:10.949Z,62.80
2023-02-09T08:29:37.996Z,61.20
2023-02-09T08:32:05.286Z,52.00
2023-02-09T08:34:32.314Z,56.50
2023-02-09T08:36:59.212Z,57.90
2023-02-09T08:39:26.214Z,55.40
2023-02-09T08:41:53.278Z,58.80
2023-02-09T08:44:20.310Z,59.70
2023-02-09T08:46:47.814Z,58.20
2023-02-09T08:49:14.933Z,57.40
2023-02-09T08:51:41.990Z,58.40
2023-02-09T08:54:09.147Z,59.10
2023-02-09T08:56:36.099Z,61.40
2023-02-09T08:59:02.936Z,59.00
2023-02-09T09:01:30.067Z,61.90
2023-02-09T09:03:57.756Z,58.80
2023-02-09T09:06:24.812Z,59.50
2023-02-09T09:08:51.876Z,56.90
2023-02-09T09:11:18.922Z,53.40
2023-02-09T09:13:45.887Z,54.10
2023-02-09T09:16:21.679Z,57.20
2023-02-09T09:18:49.454Z,54.20
2023-02-09T09:21:18.729Z,50.40
2023-02-09T09:23:47.093Z,51.50
2023-02-09T09:26:14.973Z,49.80
2023-02-09T09:28:42.312Z,47.80
2023-02-09T09:31:12.561Z,49.80
2023-02-09T09:33:40.515Z,52.30
2023-02-09T09:36:08.290Z,51.70
2023-02-09T09:38:37.514Z,49.30
2023-02-09T09:41:06.491Z,55.00
2023-02-09T09:43:37.664Z,48.50
2023-02-09T09:46:08.692Z,51.20
2023-02-09T09:48:46.161Z,45.40
2023-02-09T09:51:20.272Z,48.20
2023-02-09T09:53:51.539Z,50.60
2023-02-09T09:56:21.436Z,49.50
2023-02-09T09:58:50.257Z,46.00
2023-02-09T10:01:21.401Z,55.60
2023-02-09T10:03:48.528Z,36.40
2023-02-09T10:06:23.094Z,33.70
2023-02-09T10:09:00.812Z,35.60
2023-02-09T10:11:43.708Z,32.70
2023-02-09T10:14:10.814Z,36.00
2023-02-09T10:16:40.584Z,35.00
2023-02-09T10:19:26.862Z,36.80
2023-02-09T10:21:55.028Z,36.90
2023-02-09T10:24:24.197Z,34.60
2023-02-09T10:27:15.194Z,32.80
2023-02-09T10:29:42.499Z,31.40
2023-02-09T10:32:17.286Z,34.60
2023-02-09T10:34:57.027Z,72.10
2023-02-09T10:37:38.403Z,34.50
2023-02-09T10:40:19.273Z,32.60
2023-02-09T10:43:00.044Z,27.30
2023-02-09T10:45:39.907Z,29.80
2023-02-09T10:51:07.632Z,29.40
2023-02-09T10:54:03.852Z,29.10
2023-02-09T10:56:50.184Z,23.70
2023-02-09T10:59:23.525Z,21.10
2023-02-09T11:02:02.258Z,26.40
2023-02-09T11:04:41.266Z,26.00
2023-02-09T11:07:15.141Z,24.10
2023-02-09T11:09:47.476Z,23.90
2023-02-09T11:12:15.256Z,26.40
2023-02-09T11:14:43.325Z,21.80
2023-02-09T11:17:40.303Z,24.60
2023-02-09T11:20:32.322Z,24.10
2023-02-09T11:23:02.018Z,26.80
2023-02-09T11:25:45.351Z,27.70
2023-02-09T11:28:15.637Z,24.50
2023-02-09T11:31:01.642Z,26.40
2023-02-09T11:33:56.629Z,29.20
2023-02-09T11:36:23.480Z,28.50
2023-02-09T11:38:59.224Z,31.50
2023-02-09T11:41:52.059Z,28.20
2023-02-09T11:44:38.154Z,29.30
2023-02-09T11:47:15.044Z,30.90
2023-02-09T11:49:48.847Z,38.00
2023-02-09T11:52:22.951Z,35.00
2023-02-09T11:54:56.180Z,30.70
2023-02-09T11:57:35.404Z,33.40
2023-02-09T12:00:06.295Z,32.40
2023-02-09T12:02:42.720Z,41.10
2023-02-09T12:05:14.554Z,36.10
2023-02-09T12:08:00.428Z,49.70
2023-02-09T12:10:36.524Z,34.70
2023-02-09T12:13:59.619Z,37.10
2023-02-09T12:16:33.379Z,40.00
2023-02-09T12:19:01.914Z,35.30
2023-02-09T12:21:35.100Z,63.90
2023-02-09T12:24:02.578Z,38.90
2023-02-09T12:26:40.359Z,101.50
2023-02-09T12:29:25.323Z,27.40
2023-02-09T12:32:04.643Z,44.30
2023-02-09T12:34:39.768Z,33.20
2023-02-09T12:37:09.810Z,33.10
2023-02-09T12:42:03.501Z,36.50
2023-02-09T12:44:30.351Z,33.80
2023-02-09T12:46:58.425Z,34.70
2023-02-09T12:49:28.248Z,37.90
2023-02-09T12:52:00.939Z,39.30
2023-02-09T12:54:49.891Z,43.80
2023-02-09T12:57:17.063Z,38.30
2023-02-09T12:59:50.424Z,50.60
2023-02-09T13:02:29.585Z,49.40
2023-02-09T13:05:11.793Z,33.40
2023-02-09T13:07:58.253Z,33.70
2023-02-09T13:10:43.070Z,32.60
2023-02-09T13:13:12.728Z,33.00
2023-02-09T13:16:03.961Z,32.50
2023-02-09T13:18:36.544Z,33.10
2023-02-09T13:21:28.315Z,35.10
2023-02-09T13:24:04.552Z,40.40
2023-02-09T13:26:33.548Z,41.70
2023-02-09T13:29:20.338Z,44.10
2023-02-09T13:32:20.622Z,38.50
2023-02-09T13:35:12.318Z,39.90
2023-02-09T13:37:54.413Z,39.20
2023-02-09T13:40:35.425Z,40.70
2023-02-09T13:43:11.332Z,42.80
2023-02-09T13:45:53.785Z,38.90
2023-02-09T13:48:29.877Z,42.60
2023-02-09T13:50:59.415Z,57.20
2023-02-09T13:53:28.513Z,81.30
2023-02-09T13:56:00.161Z,64.50
2023-02-09T13:58:35.271Z,40.30
2023-02-09T14:01:08.248Z,144.50
2023-02-09T14:04:17.810Z,101.20
2023-02-09T14:07:17.414Z,80.20
2023-02-09T14:09:51.836Z,41.80
2023-02-09T14:12:49.277Z,38.70
2023-02-09T14:15:35.252Z,41.80
2023-02-09T14:18:02.204Z,47.10
2023-02-09T14:20:29.152Z,44.60
2023-02-09T14:23:01.221Z,39.90
2023-02-09T14:25:30.128Z,48.50
2023-02-09T14:27:58.437Z,47.20
2023-02-09T14:30:32.290Z,43.80
2023-02-09T14:33:03.572Z,46.40
2023-02-09T14:35:41.462Z,42.20
2023-02-09T14:38:42.647Z,41.90
2023-02-09T14:41:18.843Z,43.90
2023-02-09T14:43:45.896Z,42.10
2023-02-09T14:46:12.788Z,42.30
2023-02-09T14:48:40.108Z,42.10
2023-02-09T14:51:16.378Z,40.20
2023-02-09T14:53:44.152Z,42.30
2023-02-09T14:56:24.210Z,43.80
2023-02-09T14:58:52.274Z,39.10
2023-02-09T15:01:21.520Z,38.40
2023-02-09T15:03:48.623Z,45.30
2023-02-09T15:06:15.978Z,41.20
2023-02-09T15:08:43.142Z,39.40
2023-02-09T15:11:42.489Z,42.80
2023-02-09T15:16:37.967Z,42.30
2023-02-09T15:19:13.405Z,43.40
2023-02-09T15:21:40.356Z,44.30
2023-02-09T15:24:07.318Z,43.20
2023-02-09T15:26:36.777Z,42.10
2023-02-09T15:29:11.269Z,44.50
2023-02-09T15:31:38.310Z,42.60
2023-02-09T15:34:06.418Z,46.20
2023-02-09T15:36:34.025Z,45.40
2023-02-09T15:39:00.952Z,45.10
2023-02-09T15:41:47.478Z,41.90
2023-02-09T15:44:36.376Z,46.30
2023-02-09T15:47:22.469Z,51.50
2023-02-09T15:49:49.564Z,47.80
2023-02-09T15:52:18.329Z,46.60
2023-02-09T15:54:45.927Z,46.20
2023-02-09T15:57:14.923Z,49.50
2023-02-09T15:59:42.730Z,48.00
2023-02-09T16:02:14.514Z,49.70
2023-02-09T16:04:41.589Z,52.60
2023-02-09T16:07:24.214Z,52.80
2023-02-09T16:09:52.081Z,56.40
2023-02-09T16:12:19.320Z,56.60
2023-02-09T16:14:46.483Z,52.60
2023-02-09T16:17:13.631Z,67.10
2023-02-09T16:19:40.822Z,99.20
2023-02-09T16:22:08.821Z,85.40
2023-02-09T16:24:44.425Z,88.80
2023-02-09T16:27:25.262Z,73.60
2023-02-09T16:29:53.556Z,69.20
2023-02-09T16:32:22.880Z,73.50
2023-02-09T16:34:50.692Z,69.10
2023-02-09T16:37:22.662Z,71.90
2023-02-09T16:39:49.567Z,77.70
2023-02-09T16:42:17.140Z,77.30
2023-02-09T16:44:44.190Z,72.80
2023-02-09T16:47:23.698Z,79.40
2023-02-09T16:49:56.917Z,74.70
2023-02-09T16:52:26.946Z,70.20
2023-02-09T16:54:57.564Z,69.40
2023-02-09T16:57:26.386Z,64.60
2023-02-09T16:59:54.383Z,70.30
2023-02-09T17:02:49.719Z,66.30
2023-02-09T17:05:29.138Z,67.30
2023-02-09T17:08:02.948Z,65.60
2023-02-09T17:10:34.270Z,70.40
2023-02-09T17:13:02.236Z,70.00
2023-02-09T17:15:32.248Z,76.70
2023-02-09T17:18:06.341Z,78.30
2023-02-09T17:20:46.593Z,79.00
2023-02-09T17:23:23.252Z,83.70
2023-02-09T17:25:56.216Z,85.80
2023-02-09T17:28:31.017Z,80.90
2023-02-09T17:31:10.713Z,85.00
2023-02-09T17:36:29.068Z,78.90
2023-02-09T17:38:59.054Z,74.60
2023-02-09T17:41:31.651Z,75.70
2023-02-09T17:44:22.272Z,83.30
2023-02-09T17:46:54.334Z,79.80
2023-02-09T17:49:21.272Z,80.90
2023-02-09T17:51:49.159Z,80.00
2023-02-09T17:54:19.736Z,84.70
2023-02-09T17:56:46.890Z,81.80
2023-02-09T17:59:15.105Z,73.40
2023-02-09T18:01:45.573Z,73.60
2023-02-09T18:04:21.149Z,71.90
2023-02-09T18:06:48.837Z,65.10
2023-02-09T18:09:15.843Z,62.30
2023-02-09T18:11:45.607Z,67.70
2023-02-09T18:16:44.094Z,59.50
2023-02-09T18:19:11.927Z,59.50
2023-02-09T18:21:45.904Z,55.10
2023-02-09T18:24:13.988Z,59.10
2023-02-09T18:26:40.938Z,86.90
2023-02-09T18:29:07.858Z,159.90
2023-02-09T18:31:36.356Z,68.40
2023-02-09T18:34:04.365Z,59.40
2023-02-09T18:36:33.070Z,83.70
2023-02-09T18:39:00.509Z,55.80
2023-02-09T18:41:28.374Z,52.80
2023-02-09T18:43:56.188Z,67.50
2023-02-09T18:46:27.351Z,68.90
2023-02-09T18:48:54.833Z,54.40
2023-02-09T18:51:22.553Z,60.80
2023-02-09T18:53:51.430Z,49.50
2023-02-09T18:56:22.685Z,63.50
2023-02-09T18:58:50.723Z,54.20
2023-02-09T19:01:21.986Z,61.40
2023-02-09T19:03:50.992Z,55.30
2023-02-09T19:06:20.584Z,54.50
2023-02-09T19:08:50.580Z,51.20
2023-02-09T19:11:20.338Z,55.80
2023-02-09T19:16:36.804Z,53.80
2023-02-09T19:19:04.736Z,53.70
2023-02-09T19:21:33.062Z,58.40
2023-02-09T19:24:18.924Z,60.40
2023-02-09T19:26:49.076Z,54.50
2023-02-09T19:29:20.165Z,55.60
2023-02-09T19:31:48.971Z,53.30
2023-02-09T19:34:16.283Z,59.30
2023-02-09T19:36:43.638Z,56.40
2023-02-09T19:39:12.314Z,194.60
2023-02-09T19:41:39.458Z,210.50
2023-02-09T19:44:07.250Z,113.40
2023-02-09T19:46:35.489Z,222.80
2023-02-09T19:49:02.853Z,53.60
2023-02-09T19:51:29.980Z,54.70
2023-02-09T19:53:57.053Z,58.50
2023-02-09T19:56:24.012Z,57.90
2023-02-09T19:58:50.942Z,57.90
2023-02-09T20:01:18.756Z,56.70
2023-02-09T20:03:45.874Z,51.20
2023-02-09T20:06:14.583Z,54.80
2023-02-09T20:08:42.601Z,58.30
2023-02-09T20:11:13.765Z,58.60
2023-02-09T20:13:43.232Z,54.30
2023-02-09T20:16:11.865Z,61.10
2023-02-09T20:18:38.821Z,65.30
2023-02-09T20:21:09.954Z,62.70
2023-02-09T20:23:38.246Z,58.80
2023-02-09T20:26:17.172Z,60.60
2023-02-09T20:28:44.154Z,59.70
2023-02-09T20:31:11.575Z,58.60
2023-02-09T20:33:39.361Z,60.70
2023-02-09T20:36:08.688Z,59.60
2023-02-09T20:38:37.404Z,67.20
2023-02-09T20:41:09.617Z,60.40
2023-02-09T20:43:56.743Z,62.00
2023-02-09T20:46:44.144Z,61.20
2023-02-09T20:49:14.322Z,55.00
2023-02-09T20:51:41.271Z,58.90
2023-02-09T20:54:08.525Z,63.40
2023-02-09T20:56:36.004Z,64.50
2023-02-09T20:59:04.763Z,64.00
2023-02-09T21:01:31.995Z,61.90
2023-02-09T21:04:00.491Z,62.60
2023-02-09T21:06:27.795Z,63.40
2023-02-09T21:08:54.854Z,61.40
2023-02-09T21:11:21.863Z,60.40
2023-02-09T21:13:48.895Z,59.50
2023-02-09T21:16:16.343Z,58.70
2023-02-09T21:18:45.853Z,62.70
2023-02-09T21:21:17.424Z,66.50
2023-02-09T21:23:45.697Z,64.60
2023-02-09T21:26:17.313Z,66.60
2023-02-09T21:28:45.533Z,65.60
2023-02-09T21:31:16.505Z,57.80
2023-02-09T21:33:44.151Z,67.20
2023-02-09T21:36:11.196Z,63.80
2023-02-09T21:38:41.930Z,65.80
2023-02-09T21:41:41.934Z,64.80
2023-02-09T21:44:13.185Z,78.90
2023-02-09T21:46:40.242Z,76.20
2023-02-09T21:49:07.804Z,71.10
2023-02-09T21:51:35.670Z,67.80
2023-02-09T21:54:04.975Z,69.40
2023-02-09T21:56:32.034Z,65.00
2023-02-09T21:58:59.079Z,62.80
2023-02-09T22:01:25.982Z,66.60
2023-02-09T22:03:57.405Z,62.50
2023-02-09T22:06:26.096Z,62.10
2023-02-09T22:08:54.251Z,65.60
2023-02-09T22:11:21.417Z,62.00
2023-02-09T22:13:48.658Z,56.80
2023-02-09T22:16:20.945Z,62.30
2023-02-09T22:18:48.306Z,63.60
2023-02-09T22:21:15.513Z,65.30
2023-02-09T22:23:42.610Z,62.10
2023-02-09T22:26:10.321Z,61.40
2023-02-09T22:28:37.320Z,58.90
2023-02-09T22:31:13.163Z,68.90
2023-02-09T22:33:40.771Z,59.00
2023-02-09T22:36:18.836Z,62.80
2023-02-09T22:38:46.101Z,62.80
2023-02-09T22:41:22.550Z,57.30
2023-02-09T22:43:56.449Z,59.50
2023-02-09T22:46:26.257Z,57.70
2023-02-09T22:48:55.829Z,61.50
2023-02-09T22:51:25.205Z,59.90
2023-02-09T22:53:52.591Z,56.80
2023-02-09T22:56:20.065Z,61.90
2023-02-09T22:58:47.465Z,53.70
2023-02-09T23:01:14.412Z,55.90
2023-02-09T23:03:42.144Z,58.40
2023-02-09T23:06:13.052Z,58.00
2023-02-09T23:08:40.115Z,55.10
2023-02-09T23:11:11.067Z,53.50
2023-02-09T23:13:39.042Z,56.90
2023-02-09T23:16:12.503Z,57.20
2023-02-09T23:18:40.915Z,61.30
2023-02-09T23:21:08.379Z,53.00
2023-02-09T23:23:35.534Z,55.90
2023-02-09T23:26:02.993Z,55.80
2023-02-09T23:28:30.000Z,53.30
2023-02-09T23:30:57.010Z,56.30
2023-02-09T23:33:23.886Z,55.40
2023-02-09T23:35:50.944Z,58.30
2023-02-09T23:38:20.311Z,56.60
2023-02-09T23:40:47.356Z,55.60
2023-02-09T23:43:14.308Z,54.70
2023-02-09T23:45:41.227Z,55.10
2023-02-09T23:48:08.175Z,49.20
2023-02-09T23:50:35.158Z,55.80
2023-02-09T23:53:02.212Z,55.80
2023-02-09T23:55:29.096Z,57.30
2023-02-09T23:57:55.908Z,53.30
